createdAt,value
2022-08-12T00:01:26.958Z,102209.69
2022-08-12T00:05:09.342Z,102201.72
2022-08-12T00:08:36.972Z,102207.69
2022-08-12T00:12:01.390Z,102209.50
2022-08-12T00:15:26.243Z,102206.75
2022-08-12T00:18:49.749Z,102206.69
2022-08-12T00:22:13.891Z,102211.19
2022-08-12T00:25:55.850Z,102203.47
2022-08-12T00:29:19.872Z,102206.97
2022-08-12T00:32:44.379Z,102209.25
2022-08-12T00:36:36.166Z,102210.72
2022-08-12T00:40:01.310Z,102215.19
2022-08-12T00:43:17.348Z,102217.16
2022-08-12T00:46:36.513Z,102213.16
2022-08-12T00:49:43.031Z,102215.41
2022-08-12T00:52:55.343Z,102221.41
2022-08-12T00:56:06.422Z,102217.28
2022-08-12T00:59:12.418Z,102218.72
2022-08-12T01:02:25.061Z,102227.25
2022-08-12T01:06:00.839Z,102219.84
2022-08-12T01:09:25.392Z,102228.53
2022-08-12T01:12:32.317Z,102224.28
2022-08-12T01:15:37.546Z,102231.22
2022-08-12T01:18:43.411Z,102222.09
2022-08-12T01:22:26.828Z,102223.00
2022-08-12T01:25:55.508Z,102236.63
2022-08-12T01:29:03.251Z,102231.13
2022-08-12T01:32:11.803Z,102229.69
2022-08-12T01:35:18.912Z,102228.28
2022-08-12T01:38:30.002Z,102225.06
2022-08-12T01:41:41.109Z,102227.75
2022-08-12T01:44:47.098Z,102229.34
2022-08-12T01:48:16.448Z,102224.22
2022-08-12T01:52:15.198Z,102233.50
2022-08-12T01:55:07.567Z,102234.03
2022-08-12T01:58:29.203Z,102243.72
2022-08-12T02:01:39.678Z,102236.34
2022-08-12T02:05:33.109Z,102246.16
2022-08-12T02:09:05.142Z,102236.25
2022-08-12T02:12:27.660Z,102237.38
2022-08-12T02:15:46.265Z,102238.44
2022-08-12T02:18:59.589Z,102237.47
2022-08-12T02:22:21.199Z,102247.03
2022-08-12T02:25:31.134Z,102243.56
2022-08-12T02:28:38.175Z,102234.88
2022-08-12T02:31:46.558Z,102240.97
2022-08-12T02:34:52.182Z,102241.88
2022-08-12T02:37:59.609Z,102236.91
2022-08-12T02:41:07.114Z,102245.34
2022-08-12T02:44:17.511Z,102231.56
2022-08-12T02:47:59.770Z,102239.44
2022-08-12T02:50:54.293Z,102232.69
2022-08-12T02:54:05.732Z,102236.47
2022-08-12T02:57:14.434Z,102234.75
2022-08-12T03:00:19.725Z,102235.53
2022-08-12T03:03:31.146Z,102248.53
2022-08-12T03:06:43.518Z,102235.78
2022-08-12T03:10:03.807Z,102228.94
2022-08-12T03:13:13.003Z,102242.88
2022-08-12T03:16:19.573Z,102242.28
2022-08-12T03:19:26.395Z,102242.81
2022-08-12T03:22:32.822Z,102240.75
2022-08-12T03:25:40.810Z,102243.97
2022-08-12T03:28:54.016Z,102243.78
2022-08-12T03:32:00.967Z,102237.25
2022-08-12T03:35:09.335Z,102244.06
2022-08-12T03:38:38.635Z,102239.94
2022-08-12T03:41:54.029Z,102242.44
2022-08-12T03:45:33.084Z,102241.53
2022-08-12T03:48:55.730Z,102241.53
2022-08-12T03:52:19.886Z,102250.44
2022-08-12T03:55:42.439Z,102252.88
2022-08-12T03:59:05.517Z,102246.13
2022-08-12T04:02:16.028Z,102245.81
2022-08-12T04:05:22.884Z,102246.66
2022-08-12T04:08:30.186Z,102241.44
2022-08-12T04:11:58.526Z,102256.84
2022-08-12T04:15:04.268Z,102253.13
2022-08-12T04:18:13.507Z,102255.16
2022-08-12T04:21:18.761Z,102262.56
2022-08-12T04:24:28.006Z,102265.84
2022-08-12T04:27:33.450Z,102268.66
2022-08-12T04:30:40.167Z,102258.94
2022-08-12T04:33:45.651Z,102255.25
2022-08-12T04:36:51.715Z,102265.22
2022-08-12T04:40:00.286Z,102272.41
2022-08-12T04:43:07.057Z,102276.59
2022-08-12T04:46:34.501Z,102275.09
2022-08-12T04:49:41.791Z,102285.19
2022-08-12T04:52:47.313Z,102273.84
2022-08-12T04:55:53.890Z,102270.28
2022-08-12T04:59:00.306Z,102279.66
2022-08-12T05:02:06.041Z,102270.84
2022-08-12T05:05:25.003Z,102276.72
2022-08-12T05:08:30.882Z,102269.53
2022-08-12T05:11:37.976Z,102272.75
2022-08-12T05:14:59.361Z,102271.91
2022-08-12T05:18:16.772Z,102269.03
2022-08-12T05:21:25.624Z,102267.34
2022-08-12T05:24:30.864Z,102271.56
2022-08-12T05:27:37.415Z,102262.63
2022-08-12T05:30:43.433Z,102263.44
2022-08-12T05:33:48.647Z,102260.66
2022-08-12T05:36:54.211Z,102263.38
2022-08-12T05:39:59.918Z,102263.88
2022-08-12T05:43:07.015Z,102263.59
2022-08-12T05:46:12.485Z,102263.53
2022-08-12T05:49:18.240Z,102268.66
2022-08-12T05:52:23.424Z,102264.22
2022-08-12T05:55:31.314Z,102268.16
2022-08-12T05:58:38.027Z,102278.41
2022-08-12T06:02:10.973Z,102274.81
2022-08-12T06:05:10.631Z,102268.72
2022-08-12T06:08:18.088Z,102270.97
2022-08-12T06:11:24.602Z,102262.22
2022-08-12T06:14:36.926Z,102255.53
2022-08-12T06:17:42.975Z,102260.41
2022-08-12T06:20:49.692Z,102261.44
2022-08-12T06:23:58.857Z,102261.47
2022-08-12T06:27:03.958Z,102263.91
2022-08-12T06:30:18.557Z,102260.72
2022-08-12T06:33:57.631Z,102267.75
2022-08-12T06:36:55.356Z,102264.22
2022-08-12T06:40:03.911Z,102262.03
2022-08-12T06:43:08.851Z,102252.00
2022-08-12T06:46:15.574Z,102252.41
2022-08-12T06:49:20.971Z,102253.69
2022-08-12T06:52:26.301Z,102261.56
2022-08-12T06:55:31.660Z,102265.47
2022-08-12T06:58:38.919Z,102261.59
2022-08-12T07:01:51.301Z,102266.72
2022-08-12T07:04:57.510Z,102271.66
2022-08-12T07:08:10.459Z,102266.31
2022-08-12T07:11:16.301Z,102261.03
2022-08-12T07:14:21.675Z,102265.06
2022-08-12T07:17:35.880Z,102260.97
2022-08-12T07:20:52.565Z,102270.41
2022-08-12T07:23:58.500Z,102273.03
2022-08-12T07:27:03.602Z,102274.38
2022-08-12T07:30:11.259Z,102278.97
2022-08-12T07:33:20.209Z,102281.59
2022-08-12T07:36:25.566Z,102287.81
2022-08-12T07:39:31.195Z,102279.31
2022-08-12T07:42:37.131Z,102277.25
2022-08-12T07:45:42.643Z,102284.44
2022-08-12T07:48:53.742Z,102283.94
2022-08-12T07:52:00.464Z,102285.50
2022-08-12T07:55:06.942Z,102284.59
2022-08-12T07:58:15.700Z,102275.78
2022-08-12T08:01:22.892Z,102280.00
2022-08-12T08:04:46.766Z,102284.34
2022-08-12T08:07:53.395Z,102280.22
2022-08-12T08:11:15.450Z,102278.59
2022-08-12T08:14:21.236Z,102284.63
2022-08-12T08:17:26.990Z,102286.03
2022-08-12T08:20:37.980Z,102292.94
2022-08-12T08:24:05.059Z,102287.38
2022-08-12T08:27:11.032Z,102287.38
2022-08-12T08:30:17.560Z,102297.88
2022-08-12T08:34:05.227Z,102297.16
2022-08-12T08:36:50.650Z,102297.78
2022-08-12T08:40:16.907Z,102297.78
2022-08-12T08:43:21.042Z,102303.69
2022-08-12T08:46:26.442Z,102301.16
2022-08-12T08:49:32.180Z,102295.94
2022-08-12T08:52:41.802Z,102303.53
2022-08-12T08:56:04.726Z,102292.09
2022-08-12T08:59:11.356Z,102299.84
2022-08-12T09:02:16.476Z,102301.75
2022-08-12T09:05:25.518Z,102305.72
2022-08-12T09:08:32.258Z,102298.50
2022-08-12T09:12:10.627Z,102298.66
2022-08-12T09:15:19.230Z,102304.47
2022-08-12T09:18:33.430Z,102301.16
2022-08-12T09:21:54.656Z,102295.72
2022-08-12T09:25:06.271Z,102303.53
2022-08-12T09:28:13.820Z,102293.09
2022-08-12T09:32:06.379Z,102298.91
2022-08-12T09:34:50.516Z,102298.31
2022-08-12T09:37:58.766Z,102287.50
2022-08-12T09:42:34.424Z,102291.41
2022-08-12T09:44:48.735Z,102286.28
2022-08-12T09:48:22.314Z,102289.78
2022-08-12T09:51:37.341Z,102298.13
2022-08-12T09:54:43.445Z,102293.81
2022-08-12T09:58:46.418Z,102297.28
2022-08-12T10:01:23.258Z,102295.41
2022-08-12T10:04:30.233Z,102294.78
2022-08-12T10:07:39.450Z,102283.75
2022-08-12T10:11:04.450Z,102283.91
2022-08-12T10:14:13.064Z,102284.50
2022-08-12T10:17:24.214Z,102290.44
2022-08-12T10:20:29.895Z,102295.41
2022-08-12T10:23:41.054Z,102286.56
2022-08-12T10:27:08.959Z,102285.31
2022-08-12T10:30:41.783Z,102286.53
2022-08-12T10:34:06.183Z,102284.56
2022-08-12T10:38:13.200Z,102282.72
2022-08-12T10:40:59.237Z,102280.50
2022-08-12T10:44:05.287Z,102274.03
2022-08-12T10:48:01.571Z,102279.66
2022-08-12T10:51:02.263Z,102284.13
2022-08-12T10:54:03.071Z,102276.97
2022-08-12T10:57:08.512Z,102264.13
2022-08-12T11:00:31.587Z,102269.81
2022-08-12T11:04:36.029Z,102270.94
2022-08-12T11:08:36.554Z,102273.56
2022-08-12T11:10:34.179Z,102257.31
2022-08-12T11:13:46.800Z,102266.97
2022-08-12T11:17:34.115Z,102254.56
2022-08-12T11:20:30.603Z,102258.00
2022-08-12T11:23:37.640Z,102259.47
2022-08-12T11:26:43.165Z,102253.41
2022-08-12T11:30:05.601Z,102247.09
2022-08-12T11:33:24.329Z,102250.56
2022-08-12T11:36:40.713Z,102243.25
2022-08-12T11:43:20.083Z,102249.59
2022-08-12T11:46:25.599Z,102240.06
2022-08-12T11:49:32.772Z,102245.63
2022-08-12T11:52:56.601Z,102244.78
2022-08-12T11:56:02.781Z,102243.88
2022-08-12T12:02:33.368Z,102235.72
2022-08-12T12:05:41.625Z,102247.81
2022-08-12T12:08:52.862Z,102232.91
2022-08-12T12:12:00.865Z,102236.69
2022-08-12T12:15:09.698Z,102235.41
2022-08-12T12:18:30.724Z,102238.16
2022-08-12T12:21:48.681Z,102236.78
2022-08-12T12:24:55.905Z,102237.50
2022-08-12T12:28:04.775Z,102234.25
2022-08-12T12:31:15.247Z,102233.31
2022-08-12T12:34:37.097Z,102227.13
2022-08-12T12:38:03.917Z,102236.94
2022-08-12T12:41:14.294Z,102229.09
2022-08-12T12:44:25.893Z,102243.50
2022-08-12T12:48:07.833Z,102235.59
2022-08-12T12:51:49.525Z,102230.97
2022-08-12T12:54:53.016Z,102229.19
2022-08-12T12:58:01.308Z,102226.72
2022-08-12T13:01:25.612Z,102231.88
2022-08-12T13:04:35.089Z,102234.38
2022-08-12T13:07:54.725Z,102235.22
2022-08-12T13:11:03.200Z,102233.59
2022-08-12T13:14:28.223Z,102236.00
2022-08-12T13:18:02.556Z,102236.81
2022-08-12T13:21:02.518Z,102221.03
2022-08-12T13:24:09.801Z,102223.28
2022-08-12T13:27:16.326Z,102219.91
2022-08-12T13:30:26.130Z,102215.84
2022-08-12T13:34:32.261Z,102218.69
2022-08-12T13:36:58.193Z,102213.81
2022-08-12T13:40:03.346Z,102216.53
2022-08-12T13:43:08.878Z,102215.13
2022-08-12T13:46:20.271Z,102217.28
2022-08-12T13:49:55.269Z,102213.44
2022-08-12T13:52:50.493Z,102204.69
2022-08-12T13:55:59.848Z,102209.88
2022-08-12T13:59:08.964Z,102202.72
2022-08-12T14:02:15.910Z,102207.03
2022-08-12T14:05:31.269Z,102203.66
2022-08-12T14:08:43.990Z,102206.81
2022-08-12T14:11:58.790Z,102199.66
2022-08-12T14:15:07.297Z,102207.94
2022-08-12T14:18:18.440Z,102202.84
2022-08-12T14:21:23.713Z,102201.03
2022-08-12T14:24:40.739Z,102207.59
2022-08-12T14:28:03.228Z,102209.16
2022-08-12T14:31:18.112Z,102208.91
2022-08-12T14:34:28.350Z,102213.44
2022-08-12T14:37:55.936Z,102206.28
2022-08-12T14:41:01.571Z,102207.97
2022-08-12T14:44:59.706Z,102200.44
2022-08-12T14:47:34.951Z,102202.59
2022-08-12T14:51:09.821Z,102195.13
2022-08-12T14:57:56.548Z,102209.66
2022-08-12T15:01:21.178Z,102218.16
2022-08-12T15:04:29.187Z,102209.63
2022-08-12T15:07:49.553Z,102213.41
2022-08-12T15:10:57.843Z,102215.53
2022-08-12T15:14:06.001Z,102225.84
2022-08-12T15:17:12.520Z,102231.31
2022-08-12T15:20:39.703Z,102230.19
2022-08-12T15:23:55.504Z,102236.50
2022-08-12T15:27:02.747Z,102243.25
2022-08-12T15:30:14.006Z,102246.81
2022-08-12T15:33:24.231Z,102250.94
2022-08-12T15:36:53.761Z,102256.88
2022-08-12T15:40:00.984Z,102255.00
2022-08-12T15:43:08.410Z,102265.81
2022-08-12T15:46:15.094Z,102265.22
2022-08-12T15:49:21.117Z,102270.59
2022-08-12T15:52:30.111Z,102276.38
2022-08-12T15:55:45.820Z,102278.72
2022-08-12T15:58:51.234Z,102287.28
2022-08-12T16:01:58.425Z,102281.97
2022-08-12T16:06:10.985Z,102298.31
2022-08-12T16:08:36.593Z,102295.59
2022-08-12T16:11:44.193Z,102292.59
2022-08-12T16:14:49.387Z,102294.63
2022-08-12T16:18:19.326Z,102294.34
2022-08-12T16:21:50.250Z,102287.28
2022-08-12T16:24:47.967Z,102298.41
2022-08-12T16:28:02.855Z,102300.44
2022-08-12T16:31:09.792Z,102302.97
2022-08-12T16:34:39.850Z,102302.75
2022-08-12T16:38:27.632Z,102299.69
2022-08-12T16:41:08.385Z,102299.53
2022-08-12T16:44:19.579Z,102311.06
2022-08-12T16:47:27.270Z,102303.78
2022-08-12T16:50:33.023Z,102312.69
2022-08-12T16:53:44.699Z,102298.03
2022-08-12T16:56:55.623Z,102299.66
2022-08-12T17:00:06.230Z,102310.19
2022-08-12T17:03:29.020Z,102307.91
2022-08-12T17:06:35.730Z,102310.81
2022-08-12T17:09:46.833Z,102310.66
2022-08-12T17:12:52.198Z,102320.25
2022-08-12T17:16:05.790Z,102328.53
2022-08-12T17:19:12.044Z,102336.66
2022-08-12T17:22:21.784Z,102320.63
2022-08-12T17:25:27.404Z,102334.56
2022-08-12T17:28:35.506Z,102330.75
2022-08-12T17:32:00.915Z,102346.81
2022-08-12T17:35:29.805Z,102340.16
2022-08-12T17:38:41.791Z,102332.09
2022-08-12T17:41:56.659Z,102335.03
2022-08-12T17:45:17.415Z,102341.84
2022-08-12T17:48:34.651Z,102349.66
2022-08-12T17:51:50.454Z,102343.97
2022-08-12T17:55:40.214Z,102345.59
2022-08-12T17:58:36.828Z,102358.03
2022-08-12T18:01:45.212Z,102354.94
2022-08-12T18:05:09.545Z,102367.91
2022-08-12T18:08:15.894Z,102367.00
2022-08-12T18:12:04.562Z,102370.81
2022-08-12T18:15:08.955Z,102373.19
2022-08-12T18:18:19.630Z,102371.63
2022-08-12T18:21:26.445Z,102381.97
2022-08-12T18:25:00.814Z,102373.44
2022-08-12T18:28:16.601Z,102378.66
2022-08-12T18:31:44.489Z,102383.38
2022-08-12T18:35:10.249Z,102386.50
2022-08-12T18:38:19.298Z,102396.19
2022-08-12T18:41:33.481Z,102396.25
2022-08-12T18:44:39.715Z,102397.81
2022-08-12T18:47:49.871Z,102400.69
2022-08-12T18:51:04.661Z,102404.84
2022-08-12T18:54:12.197Z,102413.94
2022-08-12T18:57:45.550Z,102412.44
2022-08-12T19:00:52.714Z,102415.19
2022-08-12T19:04:06.695Z,102417.00
2022-08-12T19:07:19.829Z,102424.66
2022-08-12T19:10:27.290Z,102417.72
2022-08-12T19:13:49.754Z,102421.28
2022-08-12T19:16:56.421Z,102425.06
2022-08-12T19:20:04.443Z,102418.38
2022-08-12T19:23:16.400Z,102420.53
2022-08-12T19:26:28.008Z,102422.31
2022-08-12T19:29:43.965Z,102431.91
2022-08-12T19:32:49.499Z,102426.00
2022-08-12T19:36:07.655Z,102425.22
2022-08-12T19:39:25.283Z,102419.81
2022-08-12T19:42:41.805Z,102427.13
2022-08-12T19:45:50.433Z,102420.53
2022-08-12T19:48:58.620Z,102420.91
2022-08-12T19:52:12.614Z,102428.13
2022-08-12T19:55:27.896Z,102433.81
2022-08-12T19:58:34.272Z,102426.50
2022-08-12T20:01:41.094Z,102422.59
2022-08-12T20:06:03.705Z,102424.34
2022-08-12T20:08:34.693Z,102425.25
2022-08-12T20:12:11.963Z,102420.72
2022-08-12T20:15:11.267Z,102425.91
2022-08-12T20:18:43.833Z,102422.03
2022-08-12T20:21:43.591Z,102429.19
2022-08-12T20:24:51.038Z,102432.91
2022-08-12T20:28:04.448Z,102431.50
2022-08-12T20:31:14.579Z,102416.78
2022-08-12T20:34:22.030Z,102423.50
2022-08-12T20:38:06.162Z,102425.81
2022-08-12T20:40:53.542Z,102429.38
2022-08-12T20:44:00.192Z,102415.22
2022-08-12T20:47:18.140Z,102418.69
2022-08-12T20:50:27.481Z,102424.94
2022-08-12T20:53:58.036Z,102414.00
2022-08-12T20:56:58.170Z,102424.03
2022-08-12T21:00:22.523Z,102429.97
2022-08-12T21:03:52.323Z,102433.19
2022-08-12T21:07:09.666Z,102427.53
2022-08-12T21:10:15.576Z,102432.41
2022-08-12T21:13:22.342Z,102424.22
2022-08-12T21:16:35.267Z,102431.81
2022-08-12T21:19:51.927Z,102429.56
2022-08-12T21:22:58.029Z,102432.09
2022-08-12T21:26:03.562Z,102436.22
2022-08-12T21:29:12.503Z,102439.09
2022-08-12T21:32:37.029Z,102430.81
2022-08-12T21:35:50.179Z,102438.19
2022-08-12T21:39:01.068Z,102431.22
2022-08-12T21:42:08.644Z,102430.97
2022-08-12T21:45:47.935Z,102436.28
2022-08-12T21:48:40.000Z,102429.75
2022-08-12T21:51:50.585Z,102427.09
2022-08-12T21:54:56.516Z,102428.00
2022-08-12T21:58:11.342Z,102432.97
2022-08-12T22:01:22.718Z,102423.47
2022-08-12T22:04:51.521Z,102423.13
2022-08-12T22:07:58.438Z,102430.31
2022-08-12T22:11:03.630Z,102425.16
2022-08-12T22:14:10.342Z,102428.38
2022-08-12T22:17:50.218Z,102424.16
2022-08-12T22:20:59.135Z,102431.19
2022-08-12T22:24:09.746Z,102423.53
2022-08-12T22:27:52.617Z,102425.69
2022-08-12T22:31:10.843Z,102421.63
2022-08-12T22:34:18.238Z,102424.56
2022-08-12T22:37:24.023Z,102420.38
2022-08-12T22:40:30.463Z,102419.09
2022-08-12T22:43:59.770Z,102430.84
2022-08-12T22:47:53.680Z,102425.22
2022-08-12T22:50:50.187Z,102426.34
2022-08-12T22:53:56.748Z,102425.28
2022-08-12T22:57:12.474Z,102418.50
2022-08-12T23:00:24.464Z,102425.13
2022-08-12T23:03:48.238Z,102416.03
2022-08-12T23:07:05.164Z,102422.84
2022-08-12T23:10:12.122Z,102421.66
2022-08-12T23:13:43.065Z,102422.56
2022-08-12T23:16:52.280Z,102420.66
2022-08-12T23:19:57.478Z,102423.41
2022-08-12T23:23:09.089Z,102418.50
2022-08-12T23:26:14.694Z,102420.03
2022-08-12T23:29:29.941Z,102422.63
2022-08-12T23:32:54.753Z,102432.16
2022-08-12T23:36:06.728Z,102429.19
2022-08-12T23:40:15.881Z,102416.09
2022-08-12T23:42:44.197Z,102424.78
2022-08-12T23:46:01.028Z,102424.00
2022-08-12T23:49:55.286Z,102418.63
2022-08-12T23:52:34.372Z,102417.91
2022-08-12T23:55:42.261Z,102421.09
2022-08-12T23:58:52.932Z,102418.75
